Latest Weather Observations for Maatsuyker Island

IDT60801

Issued at 11:31 pm EDT Monday 30 March 2020 (issued every 10 minutes, with the page automatically refreshed every 10 minutes)

About weather observations | Map of weather stations | Latest weather observations for TAS | Other Formats
Station Details ID: 094041 Name: MAATSUYKER ISLAND LIGHTHOUSE Lat: -43.66 Lon: 146.27 Height: 146.5 m
Data from the previous 72 hours. | See also: Recent months at Maatsuyker Island
Date/Time
EDT
Temp
°C
App
Temp
°C
Dew
Point
°C
Rel
Hum
%
Delta-T
°C
Wind Press
QNH
hPa
Press
MSL
hPa
Rain since
9am
mm
Dir  Spd
km/h
Gust
km/h
Spd
kts
Gust
kts
30/11:30pm 12.1 - - - - NW 54 67 29 36 1009.1 - 2.4
30/11:16pm 12.1 - - - - NW 48 67 26 36 1009.0 - 2.4
30/11:00pm 12.0 - - - - NW 39 52 21 28 1009.5 - 2.4
30/10:30pm 11.7 - - - - NW 46 56 25 30 1009.1 - 2.4
30/10:00pm 11.7 - - - - NW 43 54 23 29 1009.0 - 2.4
30/09:45pm 11.4 - - - - NW 33 52 18 28 1009.3 - 2.4
30/09:30pm 11.8 - - - - NNW 28 37 15 20 1009.5 - 2.4
30/09:00pm 11.9 - - - - NW 37 46 20 25 1009.3 1009.2 2.4
30/08:30pm 12.0 - - - - NW 50 59 27 32 1008.7 - 2.4
30/08:00pm 12.1 - - - - NW 50 59 27 32 1008.4 - 2.4
30/07:30pm 12.1 - - - - NW 48 59 26 32 1008.3 - 2.4
30/07:00pm 12.0 - - - - NW 48 56 26 30 1007.9 - 2.4
30/06:30pm 12.0 - - - - NW 54 61 29 33 1007.6 - 2.4
30/06:00pm 12.2 - - - - NW 56 65 30 35 1007.3 1007.2 2.4
30/05:30pm 12.2 - - - - NW 56 65 30 35 1007.1 - 2.4
30/05:00pm 12.8 - - - - NW 54 61 29 33 1006.9 - 2.4
30/04:30pm 12.6 - - - - NW 52 61 28 33 1006.8 - 2.4
30/04:00pm 13.1 - - - - NW 54 59 29 32 1006.7 - 2.4
30/03:30pm 13.0 - - - - NW 54 61 29 33 1006.6 - 2.4
30/03:00pm 13.3 - - - - NW 54 61 29 33 1006.4 1006.3 2.4
30/02:30pm 12.6 - - - - NW 54 59 29 32 1006.3 - 2.4
30/02:00pm 13.6 - - - - NW 52 57 28 31 1006.2 - 2.2
30/01:30pm 13.2 - - - - NW 56 61 30 33 1006.2 - 2.2
30/01:00pm 13.2 - - - - NW 52 61 28 33 1006.1 - 2.2
30/12:30pm 12.8 - - - - WNW 56 65 30 35 1006.0 - 2.2
30/12:00pm 12.1 - - - - WNW 67 74 36 40 1005.6 1005.5 2.2
30/11:30am 11.3 - - - - NW 65 76 35 41 1005.4 - 2.2
30/11:00am 12.1 - - - - NW 63 69 34 37 1004.6 - 1.8
30/10:30am 11.2 - - - - NW 67 78 36 42 1004.5 - 1.8
30/10:00am 11.2 - - - - NW 59 70 32 38 1003.9 - 1.8
30/09:49am 10.9 - - - - NW 67 85 36 46 1003.6 - 1.8
30/09:40am 11.3 - - - - NW 69 80 37 43 1003.5 - 1.4
30/09:39am 12.3 - - - - NW 46 76 25 41 1003.8 - 0.8
30/09:30am 13.2 - - - - NNW 44 57 24 31 1003.3 - 0.0
30/09:00am 13.2 - - - - NW 46 59 25 32 1003.1 1002.9 2.8
30/08:30am 13.3 - - - - NW 48 63 26 34 1003.1 - 2.8
30/08:12am 13.0 - - - - NW 48 72 26 39 1003.0 - 2.8
30/08:00am 13.0 - - - - NW 44 57 24 31 1003.1 - 2.8
30/07:33am 12.9 - - - - NW 46 67 25 36 1002.5 - 2.8
30/07:30am 12.8 - - - - NNW 44 57 24 31 1002.7 - 2.8
30/07:11am 12.6 - - - - NW 46 65 25 35 1002.7 - 2.8
30/07:00am 12.6 - - - - NNW 48 63 26 34 1002.4 - 2.8
30/06:40am 12.5 - - - - NW 54 72 29 39 1001.8 - 2.8
30/06:30am 12.3 - - - - NNW 56 72 30 39 1001.5 - 2.8
30/06:03am 11.8 - - - - NNW 52 70 28 38 1001.9 - 2.8
30/06:00am 11.8 - - - - NNW 54 70 29 38 1001.9 1001.8 2.8
30/05:36am 11.5 - - - - NW 65 83 35 45 1001.6 - 2.8
30/05:30am 11.4 - - - - NW 67 83 36 45 1001.3 - 2.8
30/05:00am 13.0 - - - - NW 61 80 33 43 1001.7 - 2.6
30/04:30am 12.5 - - - - NW 65 85 35 46 1001.2 - 2.6
30/04:00am 12.2 - - - - NW 63 82 34 44 1001.3 - 2.4
30/03:58am 12.7 - - - - NW 61 82 33 44 1001.6 - 2.4
30/03:30am 13.0 - - - - NW 59 72 32 39 1001.8 - 2.4
30/03:17am 12.9 - - - - NW 57 76 31 41 1001.7 - 2.2
30/03:00am 12.7 - - - - NW 57 70 31 38 1001.8 1001.7 2.2
30/02:30am 13.2 - - - - NW 54 69 29 37 1002.5 - 2.2
30/02:00am 13.5 - - - - NW 50 63 27 34 1002.8 - 2.2
30/01:30am 14.7 - - - - NW 46 61 25 33 1003.0 - 1.8
30/01:00am 15.0 - - - - NW 52 67 28 36 1002.9 - 1.8
30/12:30am 14.9 - - - - NW 50 65 27 35 1002.8 - 1.8
30/12:00am 14.6 - - - - NW 52 70 28 38 1003.1 1002.9 1.8
 
Date/Time
EDT
Temp
°C
App
Temp
°C
Dew
Point
°C
Rel
Hum
%
Delta-T
°C
Wind Press
QNH
hPa
Press
MSL
hPa
Rain since
9am
mm
Dir  Spd
km/h
Gust
km/h
Spd
kts
Gust
kts
29/11:49pm 14.9 - - - - NW 50 76 27 41 1002.6 - 1.8
29/11:30pm 14.9 - - - - NW 48 61 26 33 1003.4 - 1.8
29/11:00pm 14.9 - - - - NW 50 67 27 36 1003.3 - 1.8
29/10:30pm 14.8 - - - - NW 48 63 26 34 1003.1 - 1.8
29/10:00pm 15.0 - - - - NW 57 67 31 36 1003.1 - 1.8
29/09:49pm 15.1 - - - - NW 59 69 32 37 1002.9 - 1.8
29/09:47pm 16.2 - - - - NNW 35 67 19 36 1003.5 - 1.4
29/09:30pm 16.5 - - - - NNW 37 48 20 26 1003.7 - 1.4
29/09:00pm 16.6 - - - - NNW 39 50 21 27 1003.7 1003.6 1.4
29/08:53pm 16.6 - - - - NNW 35 50 19 27 1003.5 - 1.4
29/08:30pm 16.7 - - - - NNW 22 32 12 17 1003.8 - 1.4
29/08:00pm 16.6 - - - - N 17 26 9 14 1003.8 - 1.4
29/07:30pm 16.3 - - - - N 17 26 9 14 1003.9 - 1.4
29/07:00pm 16.0 - - - - N 19 26 10 14 1003.9 - 1.4
29/06:30pm 16.1 - - - - N 19 30 10 16 1004.5 - 1.4
29/06:00pm 16.2 - - - - N 19 24 10 13 1004.8 1004.7 1.2
29/05:30pm 16.1 - - - - NNW 24 35 13 19 1005.0 - 1.2
29/05:00pm 16.3 - - - - N 26 35 14 19 1005.1 - 1.2
29/04:30pm 16.8 - - - - NNW 28 39 15 21 1005.4 - 1.2
29/04:00pm 16.5 - - - - NNW 22 30 12 16 1005.8 - 1.2
29/03:30pm 16.7 - - - - N 24 37 13 20 1005.9 - 1.0
29/03:00pm 16.9 - - - - N 22 30 12 16 1006.2 1006.1 0.6
29/02:30pm 17.6 - - - - N 26 37 14 20 1006.2 - 0.6
29/02:00pm 18.1 - - - - N 20 32 11 17 1007.0 - 0.6
29/01:30pm 18.3 - - - - N 22 33 12 18 1007.3 - 0.6
29/01:00pm 18.3 - - - - N 28 41 15 22 1007.7 - 0.6
29/12:30pm 17.8 - - - - N 30 43 16 23 1007.9 - 0.6
29/12:00pm 18.3 - - - - N 26 39 14 21 1008.4 1008.3 0.4
29/11:30am 17.7 - - - - N 30 44 16 24 1008.7 - 0.4
29/11:00am 17.3 - - - - N 32 48 17 26 1009.3 - 0.4
29/10:30am 17.2 - - - - N 33 48 18 26 1009.3 - 0.4
29/10:07am 17.0 - - - - N 32 50 17 27 1009.7 - 0.4
29/10:00am 17.1 - - - - N 33 44 18 24 1009.6 - 0.4
29/09:50am 16.9 - - - - N 28 48 15 26 1009.7 - 0.4
29/09:30am 16.5 - - - - N 32 41 17 22 1009.6 - 0.0
29/09:00am 16.9 - - - - N 32 50 17 27 1009.7 1009.6 0.0
29/08:30am 19.5 - - - - N 33 52 18 28 1009.5 - 0.0
29/08:00am 19.2 - - - - N 30 43 16 23 1008.6 - 0.0
29/07:30am 19.1 - - - - N 28 39 15 21 1008.6 - 0.0
29/07:00am 19.1 - - - - N 26 35 14 19 1008.7 - 0.0
29/06:33am 18.7 - - - - N 28 48 15 26 1008.7 - 0.0
29/06:30am 18.5 - - - - N 26 39 14 21 1008.8 - 0.0
29/06:13am 18.3 - - - - N 26 - 14 - - 1008.8 -
29/06:00am 18.4 - - - - NNW 24 32 13 17 1008.8 1008.7 0.0
29/05:32am 18.3 - - - - N 28 46 15 25 1009.1 - 0.0
29/05:30am 18.4 - - - - N 30 41 16 22 1009.0 - 0.0
29/05:00am 19.0 - - - - N 39 63 21 34 1009.4 - 0.0
29/04:41am 19.5 - - - - N 28 46 15 25 1009.7 - 0.0
29/04:30am 19.5 - - - - N 28 41 15 22 1009.9 - 0.0
29/04:00am 19.7 - - - - N 28 39 15 21 1010.0 - 0.0
29/03:30am 19.8 - - - - N 26 41 14 22 1010.2 - 0.0
29/03:00am 19.7 - - - - N 20 39 11 21 1010.7 1010.6 0.0
29/02:30am 19.8 - - - - N 22 35 12 19 1011.0 - 0.0
29/02:00am 19.7 - - - - N 22 32 12 17 1011.4 - 0.0
29/01:30am 19.8 - - - - NNW 20 32 11 17 1011.6 - 0.0
29/01:00am 20.0 - - - - NNW 20 32 11 17 1012.0 - 0.0
29/12:30am 19.8 - - - - N 19 32 10 17 1012.4 - 0.0
29/12:00am 20.0 - - - - N 28 35 15 19 1012.5 1012.4 0.0
 
Date/Time
EDT
Temp
°C
App
Temp
°C
Dew
Point
°C
Rel
Hum
%
Delta-T
°C
Wind Press
QNH
hPa
Press
MSL
hPa
Rain since
9am
mm
Dir  Spd
km/h
Gust
km/h
Spd
kts
Gust
kts
28/11:30pm 20.4 - - - - N 20 35 11 19 1012.9 - 0.0
28/11:00pm 20.3 - - - - N 22 32 12 17 1013.3 - 0.0
28/10:30pm 20.1 - - - - N 22 32 12 17 1013.7 - 0.0
28/10:00pm 20.6 - - - - N 24 35 13 19 1013.7 - 0.0
28/09:30pm 20.9 - - - - N 30 39 16 21 1013.9 - 0.0
28/09:00pm 20.8 - - - - N 24 35 13 19 1014.2 1014.1 0.0
28/08:30pm 21.2 - - - - N 24 35 13 19 1014.5 - 0.0
28/08:00pm 21.4 - - - - N 17 22 9 12 1014.6 - 0.0
28/07:30pm 22.0 - - - - N 22 32 12 17 1014.5 - 0.0
28/07:00pm 22.3 - - - - N 17 24 9 13 1014.5 - 0.0
28/06:30pm 23.3 - - - - N 19 30 10 16 1014.6 - 0.0
28/06:00pm 22.8 - - - - N 26 37 14 20 1014.6 1014.5 0.0
28/05:30pm 23.0 - - - - N 20 32 11 17 1014.8 - 0.0
28/05:00pm 24.3 - - - - NNW 24 33 13 18 1014.9 - 0.0
28/04:30pm 24.3 - - - - NNW 28 39 15 21 1015.1 - 0.0
28/04:00pm 23.7 - - - - NNW 32 41 17 22 1015.3 - 0.0
28/03:30pm 23.6 - - - - NNW 32 41 17 22 1015.5 - 0.0
28/03:00pm 23.6 - - - - NNW 30 43 16 23 1015.7 1015.7 0.0
28/02:30pm 23.1 - - - - NNW 28 39 15 21 1016.1 - 0.0
28/02:00pm 22.5 - - - - N 28 39 15 21 1016.5 - 0.0
28/01:30pm 21.9 - - - - NNW 26 39 14 21 1017.0 - 0.0
28/01:00pm 22.4 - - - - NNW 30 43 16 23 1017.3 - 0.0
28/12:30pm 21.3 - - - - NNW 24 33 13 18 1017.7 - 0.0
28/12:00pm 21.1 - - - - N 24 33 13 18 1018.0 1017.9 0.0
28/11:30am 20.1 - - - - NNW 20 26 11 14 1018.4 - 0.0
28/11:00am 19.3 - - - - N 15 20 8 11 1019.0 - 0.0
28/10:30am 18.3 - - - - N 19 24 10 13 1019.2 - 0.0
28/10:00am 16.8 - - - - NNE 15 20 8 11 1019.4 - 0.0
28/09:30am 15.4 - - - - N 15 26 8 14 1019.6 - 0.0
28/09:00am 14.4 - - - - N 15 26 8 14 1019.8 1019.7 0.0
28/08:30am 14.2 - - - - N 20 26 11 14 1020.0 - 0.0
28/08:00am 13.8 - - - - N 17 26 9 14 1020.1 - 0.0
28/07:30am 13.3 - - - - N 20 24 11 13 1020.1 - 0.0
28/07:00am 13.2 - - - - N 17 22 9 12 1020.4 - 0.0
28/06:30am 14.0 - - - - N 19 26 10 14 1020.3 - 0.0
28/06:00am 13.5 - - - - N 19 24 10 13 1020.5 1020.4 0.0
28/05:30am 13.3 - - - - N 20 28 11 15 1020.8 - 0.0
28/05:00am 12.7 - - - - N 19 20 10 11 1021.0 - 0.0
28/04:30am 12.4 - - - - N 19 20 10 11 1021.1 - 0.0
28/04:00am 12.2 - - - - N 11 15 6 8 1021.5 - 0.0
28/03:00am 12.8 - - - - N 13 15 7 8 1022.0 1022.0 0.0
28/02:30am 12.2 - - - - N 7 13 4 7 1022.3 - 0.0
28/02:00am 12.8 - - - - CALM 0 6 0 3 1022.7 - 0.0
28/01:30am 13.1 - - - - N 7 11 4 6 1022.9 - 0.0
28/01:00am 12.8 - - - - N 2 9 1 5 1023.2 - 0.0
28/12:30am 13.1 - - - - N 6 9 3 5 1023.6 - 0.0
28/12:00am 14.3 - - - - NE 7 11 4 6 1023.8 1023.7 0.0

Other formats

Comma delimited format used in spreadsheet applications
http://www.bom.gov.au/fwo/IDT60801/IDT60801.94962.axf

JavaScript Object Notation format (JSON) in row-major order
http://www.bom.gov.au/fwo/IDT60801/IDT60801.94962.json

Data quality

Most of these data are generated automatically and are frequently updated. Quality checks on data are not normally performed. It is possible for incorrect values to appear. Refer to information at About Latest Weather Observations and please check the disclaimer before using these data.